sensor_id;sensor_type;location;lat;lon;timestamp;P1;durP1;ratioP1;P2;durP2;ratioP2
59054;SDS011;44845;51.444;7.460;2022-09-12T00:00:17;19.20;;;12.82;;
59054;SDS011;44845;51.444;7.460;2022-09-12T00:02:42;20.02;;;13.35;;
59054;SDS011;44845;51.444;7.460;2022-09-12T00:05:07;17.33;;;12.50;;
59054;SDS011;44845;51.444;7.460;2022-09-12T00:07:33;20.73;;;13.15;;
59054;SDS011;44845;51.444;7.460;2022-09-12T00:10:01;17.85;;;11.75;;
59054;SDS011;44845;51.444;7.460;2022-09-12T00:12:26;21.92;;;12.80;;
59054;SDS011;44845;51.444;7.460;2022-09-12T00:14:54;19.08;;;12.27;;
59054;SDS011;44845;51.444;7.460;2022-09-12T00:17:20;20.92;;;11.98;;
59054;SDS011;44845;51.444;7.460;2022-09-12T00:19:48;18.30;;;12.43;;
59054;SDS011;44845;51.444;7.460;2022-09-12T00:22:13;18.83;;;11.88;;
59054;SDS011;44845;51.444;7.460;2022-09-12T00:24:42;21.75;;;11.77;;
59054;SDS011;44845;51.444;7.460;2022-09-12T00:27:07;21.85;;;11.93;;
59054;SDS011;44845;51.444;7.460;2022-09-12T00:29:32;19.37;;;12.40;;
59054;SDS011;44845;51.444;7.460;2022-09-12T00:31:57;17.87;;;11.63;;
59054;SDS011;44845;51.444;7.460;2022-09-12T00:34:23;19.42;;;12.75;;
59054;SDS011;44845;51.444;7.460;2022-09-12T00:36:48;18.00;;;12.37;;
59054;SDS011;44845;51.444;7.460;2022-09-12T00:39:13;21.20;;;12.07;;
59054;SDS011;44845;51.444;7.460;2022-09-12T00:41:42;18.58;;;11.27;;
59054;SDS011;44845;51.444;7.460;2022-09-12T00:49:45;13.65;;;10.27;;
59054;SDS011;44845;51.444;7.460;2022-09-12T00:51:51;13.88;;;10.38;;
59054;SDS011;44845;51.444;7.460;2022-09-12T00:54:24;18.35;;;10.13;;
59054;SDS011;44845;51.444;7.460;2022-09-12T00:56:50;15.70;;;9.98;;
59054;SDS011;44845;51.444;7.460;2022-09-12T00:59:19;14.15;;;9.20;;
59054;SDS011;44845;51.444;7.460;2022-09-12T01:01:45;13.30;;;8.48;;
59054;SDS011;44845;51.444;7.460;2022-09-12T01:04:15;12.48;;;9.05;;
59054;SDS011;44845;51.444;7.460;2022-09-12T01:06:41;14.43;;;9.05;;
59054;SDS011;44845;51.444;7.460;2022-09-12T01:09:08;16.33;;;9.88;;
59054;SDS011;44845;51.444;7.460;2022-09-12T01:11:37;16.00;;;9.50;;
59054;SDS011;44845;51.444;7.460;2022-09-12T01:14:04;17.42;;;10.15;;
59054;SDS011;44845;51.444;7.460;2022-09-12T01:16:29;16.73;;;9.63;;
59054;SDS011;44845;51.444;7.460;2022-09-12T01:24:31;13.23;;;9.60;;
59054;SDS011;44845;51.444;7.460;2022-09-12T01:34:42;12.18;;;9.52;;
59054;SDS011;44845;51.444;7.460;2022-09-12T01:42:22;19.33;;;10.95;;
59054;SDS011;44845;51.444;7.460;2022-09-12T01:47:20;14.95;;;10.35;;
59054;SDS011;44845;51.444;7.460;2022-09-12T01:49:50;15.95;;;10.82;;
59054;SDS011;44845;51.444;7.460;2022-09-12T01:52:27;19.67;;;11.10;;
59054;SDS011;44845;51.444;7.460;2022-09-12T01:54:59;14.43;;;10.18;;
59054;SDS011;44845;51.444;7.460;2022-09-12T01:57:34;16.35;;;10.43;;
59054;SDS011;44845;51.444;7.460;2022-09-12T02:00:10;14.30;;;10.93;;
59054;SDS011;44845;51.444;7.460;2022-09-12T02:05:08;16.83;;;9.55;;
59054;SDS011;44845;51.444;7.460;2022-09-12T02:07:39;16.58;;;10.57;;
59054;SDS011;44845;51.444;7.460;2022-09-12T02:10:14;13.50;;;9.57;;
59054;SDS011;44845;51.444;7.460;2022-09-12T02:12:46;14.77;;;9.27;;
59054;SDS011;44845;51.444;7.460;2022-09-12T02:15:13;15.82;;;9.25;;
59054;SDS011;44845;51.444;7.460;2022-09-12T02:17:41;12.18;;;9.15;;
59054;SDS011;44845;51.444;7.460;2022-09-12T02:20:22;12.43;;;9.52;;
59054;SDS011;44845;51.444;7.460;2022-09-12T02:22:48;12.57;;;8.73;;
59054;SDS011;44845;51.444;7.460;2022-09-12T02:25:15;10.63;;;8.18;;
59054;SDS011;44845;51.444;7.460;2022-09-12T02:27:49;13.57;;;8.52;;
59054;SDS011;44845;51.444;7.460;2022-09-12T02:30:16;11.40;;;8.93;;
59054;SDS011;44845;51.444;7.460;2022-09-12T02:35:38;11.98;;;8.60;;
59054;SDS011;44845;51.444;7.460;2022-09-12T02:38:08;15.43;;;8.75;;
59054;SDS011;44845;51.444;7.460;2022-09-12T02:40:35;11.82;;;8.80;;
59054;SDS011;44845;51.444;7.460;2022-09-12T02:43:02;10.80;;;8.23;;
59054;SDS011;44845;51.444;7.460;2022-09-12T02:45:28;12.48;;;8.35;;
59054;SDS011;44845;51.444;7.460;2022-09-12T02:47:57;15.18;;;8.57;;
59054;SDS011;44845;51.444;7.460;2022-09-12T02:50:24;11.77;;;7.90;;
59054;SDS011;44845;51.444;7.460;2022-09-12T02:52:52;9.68;;;8.40;;
59054;SDS011;44845;51.444;7.460;2022-09-12T02:55:18;8.73;;;7.32;;
59054;SDS011;44845;51.444;7.460;2022-09-12T02:57:44;12.93;;;8.68;;
59054;SDS011;44845;51.444;7.460;2022-09-12T03:00:09;11.13;;;8.07;;
59054;SDS011;44845;51.444;7.460;2022-09-12T03:02:50;13.40;;;8.23;;
59054;SDS011;44845;51.444;7.460;2022-09-12T03:05:35;13.90;;;9.23;;
59054;SDS011;44845;51.444;7.460;2022-09-12T03:10:36;10.45;;;7.90;;
59054;SDS011;44845;51.444;7.460;2022-09-12T03:13:21;10.75;;;7.85;;
59054;SDS011;44845;51.444;7.460;2022-09-12T03:23:28;11.77;;;8.23;;
59054;SDS011;44845;51.444;7.460;2022-09-12T03:25:56;12.10;;;7.93;;
59054;SDS011;44845;51.444;7.460;2022-09-12T03:28:23;11.65;;;7.75;;
59054;SDS011;44845;51.444;7.460;2022-09-12T03:30:48;11.10;;;7.93;;
59054;SDS011;44845;51.444;7.460;2022-09-12T03:33:19;10.38;;;7.75;;
59054;SDS011;44845;51.444;7.460;2022-09-12T03:35:45;9.43;;;7.68;;
59054;SDS011;44845;51.444;7.460;2022-09-12T03:38:10;10.30;;;7.45;;
59054;SDS011;44845;51.444;7.460;2022-09-12T03:40:36;10.43;;;7.68;;
59054;SDS011;44845;51.444;7.460;2022-09-12T03:43:02;9.65;;;7.30;;
59054;SDS011;44845;51.444;7.460;2022-09-12T03:45:27;15.20;;;8.65;;
59054;SDS011;44845;51.444;7.460;2022-09-12T03:47:52;9.83;;;8.10;;
59054;SDS011;44845;51.444;7.460;2022-09-12T03:50:21;13.23;;;7.83;;
59054;SDS011;44845;51.444;7.460;2022-09-12T03:52:46;9.93;;;7.60;;
59054;SDS011;44845;51.444;7.460;2022-09-12T03:55:11;9.75;;;7.10;;
59054;SDS011;44845;51.444;7.460;2022-09-12T03:57:36;9.70;;;7.50;;
59054;SDS011;44845;51.444;7.460;2022-09-12T04:00:02;9.73;;;7.88;;
59054;SDS011;44845;51.444;7.460;2022-09-12T04:02:28;11.52;;;7.53;;
59054;SDS011;44845;51.444;7.460;2022-09-12T04:04:53;8.27;;;7.40;;
59054;SDS011;44845;51.444;7.460;2022-09-12T04:07:25;9.53;;;7.87;;
59054;SDS011;44845;51.444;7.460;2022-09-12T04:09:50;12.25;;;8.45;;
59054;SDS011;44845;51.444;7.460;2022-09-12T04:12:16;11.77;;;8.20;;
59054;SDS011;44845;51.444;7.460;2022-09-12T04:14:41;9.88;;;7.22;;
59054;SDS011;44845;51.444;7.460;2022-09-12T04:17:09;10.57;;;7.73;;
59054;SDS011;44845;51.444;7.460;2022-09-12T04:19:34;9.50;;;7.15;;
59054;SDS011;44845;51.444;7.460;2022-09-12T04:22:00;10.53;;;7.97;;
59054;SDS011;44845;51.444;7.460;2022-09-12T04:24:25;12.07;;;7.67;;
59054;SDS011;44845;51.444;7.460;2022-09-12T04:26:50;12.50;;;7.60;;
59054;SDS011;44845;51.444;7.460;2022-09-12T04:29:15;9.40;;;7.13;;
59054;SDS011;44845;51.444;7.460;2022-09-12T04:31:41;10.63;;;7.67;;
59054;SDS011;44845;51.444;7.460;2022-09-12T04:34:09;12.75;;;7.40;;
59054;SDS011;44845;51.444;7.460;2022-09-12T04:36:34;9.75;;;6.95;;
59054;SDS011;44845;51.444;7.460;2022-09-12T04:39:00;10.18;;;6.88;;
59054;SDS011;44845;51.444;7.460;2022-09-12T04:41:30;8.00;;;6.93;;
59054;SDS011;44845;51.444;7.460;2022-09-12T04:43:57;8.63;;;7.05;;
59054;SDS011;44845;51.444;7.460;2022-09-12T04:46:30;9.23;;;7.18;;
59054;SDS011;44845;51.444;7.460;2022-09-12T04:48:55;9.88;;;6.90;;
59054;SDS011;44845;51.444;7.460;2022-09-12T04:51:22;9.27;;;6.85;;
59054;SDS011;44845;51.444;7.460;2022-09-12T04:53:50;8.80;;;6.43;;
59054;SDS011;44845;51.444;7.460;2022-09-12T04:56:17;8.98;;;6.60;;
59054;SDS011;44845;51.444;7.460;2022-09-12T04:58:42;13.50;;;6.78;;
59054;SDS011;44845;51.444;7.460;2022-09-12T05:01:12;11.38;;;6.05;;
59054;SDS011;44845;51.444;7.460;2022-09-12T05:03:40;8.45;;;6.65;;
59054;SDS011;44845;51.444;7.460;2022-09-12T05:06:08;10.20;;;7.03;;
59054;SDS011;44845;51.444;7.460;2022-09-12T05:08:37;7.68;;;6.47;;
59054;SDS011;44845;51.444;7.460;2022-09-12T05:11:11;10.07;;;7.07;;
59054;SDS011;44845;51.444;7.460;2022-09-12T05:13:36;8.85;;;6.55;;
59054;SDS011;44845;51.444;7.460;2022-09-12T05:16:03;11.13;;;7.00;;
59054;SDS011;44845;51.444;7.460;2022-09-12T05:18:32;7.75;;;6.63;;
59054;SDS011;44845;51.444;7.460;2022-09-12T05:20:58;9.20;;;6.47;;
59054;SDS011;44845;51.444;7.460;2022-09-12T05:23:27;8.02;;;6.90;;
59054;SDS011;44845;51.444;7.460;2022-09-12T05:25:56;9.30;;;6.68;;
59054;SDS011;44845;51.444;7.460;2022-09-12T05:28:31;10.05;;;7.00;;
59054;SDS011;44845;51.444;7.460;2022-09-12T05:33:25;9.60;;;6.40;;
59054;SDS011;44845;51.444;7.460;2022-09-12T05:35:50;11.90;;;6.57;;
59054;SDS011;44845;51.444;7.460;2022-09-12T05:38:16;9.02;;;6.90;;
59054;SDS011;44845;51.444;7.460;2022-09-12T05:40:42;8.23;;;6.72;;
59054;SDS011;44845;51.444;7.460;2022-09-12T05:43:07;8.17;;;6.50;;
59054;SDS011;44845;51.444;7.460;2022-09-12T05:45:32;10.40;;;7.23;;
59054;SDS011;44845;51.444;7.460;2022-09-12T05:47:58;8.43;;;6.95;;
59054;SDS011;44845;51.444;7.460;2022-09-12T05:50:26;8.30;;;7.33;;
59054;SDS011;44845;51.444;7.460;2022-09-12T05:52:52;11.20;;;7.78;;
59054;SDS011;44845;51.444;7.460;2022-09-12T05:55:18;11.68;;;7.53;;
59054;SDS011;44845;51.444;7.460;2022-09-12T05:57:44;9.50;;;7.33;;
59054;SDS011;44845;51.444;7.460;2022-09-12T06:00:10;11.43;;;7.82;;
59054;SDS011;44845;51.444;7.460;2022-09-12T06:02:35;10.50;;;7.60;;
59054;SDS011;44845;51.444;7.460;2022-09-12T06:05:01;11.67;;;7.97;;
59054;SDS011;44845;51.444;7.460;2022-09-12T06:07:26;9.20;;;7.33;;
59054;SDS011;44845;51.444;7.460;2022-09-12T06:09:51;10.37;;;7.67;;
59054;SDS011;44845;51.444;7.460;2022-09-12T06:12:16;10.87;;;7.60;;
59054;SDS011;44845;51.444;7.460;2022-09-12T06:14:44;11.07;;;8.02;;
59054;SDS011;44845;51.444;7.460;2022-09-12T06:17:10;10.88;;;8.30;;
59054;SDS011;44845;51.444;7.460;2022-09-12T06:19:35;10.43;;;7.30;;
59054;SDS011;44845;51.444;7.460;2022-09-12T06:22:00;11.30;;;8.20;;
59054;SDS011;44845;51.444;7.460;2022-09-12T06:24:26;9.77;;;7.25;;
59054;SDS011;44845;51.444;7.460;2022-09-12T06:26:51;10.23;;;7.20;;
59054;SDS011;44845;51.444;7.460;2022-09-12T06:29:17;9.20;;;7.35;;
59054;SDS011;44845;51.444;7.460;2022-09-12T06:31:43;10.90;;;7.63;;
59054;SDS011;44845;51.444;7.460;2022-09-12T06:34:13;12.43;;;7.70;;
59054;SDS011;44845;51.444;7.460;2022-09-12T06:36:39;13.18;;;7.80;;
59054;SDS011;44845;51.444;7.460;2022-09-12T06:39:18;12.82;;;7.75;;
59054;SDS011;44845;51.444;7.460;2022-09-12T06:41:43;13.18;;;8.60;;
59054;SDS011;44845;51.444;7.460;2022-09-12T06:44:12;12.27;;;7.50;;
59054;SDS011;44845;51.444;7.460;2022-09-12T06:46:39;12.45;;;7.95;;
59054;SDS011;44845;51.444;7.460;2022-09-12T06:49:04;12.57;;;8.00;;
59054;SDS011;44845;51.444;7.460;2022-09-12T06:51:30;11.40;;;7.70;;
59054;SDS011;44845;51.444;7.460;2022-09-12T06:53:55;11.37;;;7.60;;
59054;SDS011;44845;51.444;7.460;2022-09-12T06:56:22;12.68;;;7.93;;
59054;SDS011;44845;51.444;7.460;2022-09-12T06:58:48;10.77;;;8.02;;
59054;SDS011;44845;51.444;7.460;2022-09-12T07:01:14;11.45;;;7.78;;
59054;SDS011;44845;51.444;7.460;2022-09-12T07:03:40;10.73;;;7.57;;
59054;SDS011;44845;51.444;7.460;2022-09-12T07:08:31;9.95;;;7.60;;
59054;SDS011;44845;51.444;7.460;2022-09-12T07:11:06;12.15;;;7.75;;
59054;SDS011;44845;51.444;7.460;2022-09-12T07:13:32;10.68;;;7.43;;
59054;SDS011;44845;51.444;7.460;2022-09-12T07:16:00;13.23;;;7.50;;
59054;SDS011;44845;51.444;7.460;2022-09-12T07:18:25;9.60;;;7.72;;
59054;SDS011;44845;51.444;7.460;2022-09-12T07:20:51;9.10;;;7.22;;
59054;SDS011;44845;51.444;7.460;2022-09-12T07:23:16;10.05;;;7.43;;
59054;SDS011;44845;51.444;7.460;2022-09-12T07:25:42;10.93;;;7.33;;
59054;SDS011;44845;51.444;7.460;2022-09-12T07:28:07;10.23;;;7.03;;
59054;SDS011;44845;51.444;7.460;2022-09-12T07:30:32;8.87;;;7.07;;
59054;SDS011;44845;51.444;7.460;2022-09-12T07:32:57;8.27;;;6.50;;
59054;SDS011;44845;51.444;7.460;2022-09-12T07:35:22;9.03;;;6.67;;
59054;SDS011;44845;51.444;7.460;2022-09-12T07:37:48;8.40;;;6.50;;
59054;SDS011;44845;51.444;7.460;2022-09-12T07:40:13;9.93;;;6.83;;
59054;SDS011;44845;51.444;7.460;2022-09-12T07:42:38;9.25;;;6.75;;
59054;SDS011;44845;51.444;7.460;2022-09-12T07:45:03;11.67;;;6.73;;
59054;SDS011;44845;51.444;7.460;2022-09-12T07:47:29;10.95;;;7.28;;
59054;SDS011;44845;51.444;7.460;2022-09-12T07:49:54;9.32;;;6.70;;
59054;SDS011;44845;51.444;7.460;2022-09-12T07:52:19;9.87;;;7.00;;
59054;SDS011;44845;51.444;7.460;2022-09-12T07:54:44;10.40;;;6.87;;
59054;SDS011;44845;51.444;7.460;2022-09-12T07:57:10;11.47;;;6.67;;
59054;SDS011;44845;51.444;7.460;2022-09-12T07:59:35;8.97;;;6.67;;
59054;SDS011;44845;51.444;7.460;2022-09-12T08:02:08;7.68;;;6.50;;
59054;SDS011;44845;51.444;7.460;2022-09-12T08:04:34;11.68;;;7.05;;
59054;SDS011;44845;51.444;7.460;2022-09-12T08:07:00;9.35;;;6.35;;
59054;SDS011;44845;51.444;7.460;2022-09-12T08:09:25;9.10;;;6.20;;
59054;SDS011;44845;51.444;7.460;2022-09-12T08:11:50;10.27;;;7.03;;
59054;SDS011;44845;51.444;7.460;2022-09-12T08:14:15;9.60;;;6.53;;
59054;SDS011;44845;51.444;7.460;2022-09-12T08:16:41;8.15;;;6.65;;
59054;SDS011;44845;51.444;7.460;2022-09-12T08:19:06;8.60;;;6.70;;
59054;SDS011;44845;51.444;7.460;2022-09-12T08:21:32;12.30;;;7.00;;
59054;SDS011;44845;51.444;7.460;2022-09-12T08:23:59;13.73;;;6.55;;
59054;SDS011;44845;51.444;7.460;2022-09-12T08:26:25;11.38;;;6.78;;
59054;SDS011;44845;51.444;7.460;2022-09-12T08:28:50;9.90;;;6.97;;
59054;SDS011;44845;51.444;7.460;2022-09-12T08:31:17;11.70;;;5.90;;
59054;SDS011;44845;51.444;7.460;2022-09-12T08:33:42;13.70;;;6.88;;
59054;SDS011;44845;51.444;7.460;2022-09-12T08:36:11;8.73;;;6.35;;
59054;SDS011;44845;51.444;7.460;2022-09-12T08:38:38;9.85;;;7.03;;
59054;SDS011;44845;51.444;7.460;2022-09-12T08:41:08;9.77;;;6.38;;
59054;SDS011;44845;51.444;7.460;2022-09-12T08:43:40;9.25;;;6.25;;
59054;SDS011;44845;51.444;7.460;2022-09-12T08:46:17;9.73;;;6.70;;
59054;SDS011;44845;51.444;7.460;2022-09-12T08:48:44;10.00;;;6.35;;
59054;SDS011;44845;51.444;7.460;2022-09-12T08:51:09;11.05;;;6.40;;
59054;SDS011;44845;51.444;7.460;2022-09-12T08:53:36;9.25;;;6.63;;
59054;SDS011;44845;51.444;7.460;2022-09-12T08:56:02;9.50;;;6.88;;
59054;SDS011;44845;51.444;7.460;2022-09-12T08:58:29;11.73;;;6.90;;
59054;SDS011;44845;51.444;7.460;2022-09-12T09:16:50;10.27;;;7.07;;
59054;SDS011;44845;51.444;7.460;2022-09-12T09:21:58;12.20;;;7.07;;
59054;SDS011;44845;51.444;7.460;2022-09-12T09:24:26;10.63;;;6.95;;
59054;SDS011;44845;51.444;7.460;2022-09-12T09:26:56;8.20;;;6.40;;
59054;SDS011;44845;51.444;7.460;2022-09-12T09:29:26;8.45;;;6.63;;
59054;SDS011;44845;51.444;7.460;2022-09-12T09:31:54;8.60;;;7.05;;
59054;SDS011;44845;51.444;7.460;2022-09-12T09:34:26;11.15;;;6.78;;
59054;SDS011;44845;51.444;7.460;2022-09-12T09:39:32;8.30;;;6.47;;
59054;SDS011;44845;51.444;7.460;2022-09-12T09:44:45;10.30;;;7.25;;
59054;SDS011;44845;51.444;7.460;2022-09-12T09:47:12;7.70;;;6.85;;
59054;SDS011;44845;51.444;7.460;2022-09-12T09:49:37;8.35;;;7.07;;
59054;SDS011;44845;51.444;7.460;2022-09-12T09:52:03;8.73;;;6.75;;
59054;SDS011;44845;51.444;7.460;2022-09-12T09:54:37;8.05;;;6.25;;
59054;SDS011;44845;51.444;7.460;2022-09-12T09:57:04;7.72;;;6.50;;
59054;SDS011;44845;51.444;7.460;2022-09-12T09:59:49;8.43;;;6.38;;
59054;SDS011;44845;51.444;7.460;2022-09-12T10:02:18;7.60;;;5.97;;
59054;SDS011;44845;51.444;7.460;2022-09-12T10:04:52;7.32;;;5.90;;
59054;SDS011;44845;51.444;7.460;2022-09-12T10:07:18;7.18;;;5.47;;
59054;SDS011;44845;51.444;7.460;2022-09-12T10:10:02;9.38;;;5.70;;
59054;SDS011;44845;51.444;7.460;2022-09-12T10:12:28;6.90;;;5.55;;
59054;SDS011;44845;51.444;7.460;2022-09-12T10:15:00;6.03;;;5.00;;
59054;SDS011;44845;51.444;7.460;2022-09-12T10:17:30;6.65;;;5.13;;
59054;SDS011;44845;51.444;7.460;2022-09-12T10:19:56;7.03;;;4.72;;
59054;SDS011;44845;51.444;7.460;2022-09-12T10:22:22;7.50;;;5.10;;
59054;SDS011;44845;51.444;7.460;2022-09-12T10:24:49;9.18;;;5.10;;
59054;SDS011;44845;51.444;7.460;2022-09-12T10:27:20;7.18;;;4.68;;
59054;SDS011;44845;51.444;7.460;2022-09-12T10:29:47;5.32;;;4.20;;
59054;SDS011;44845;51.444;7.460;2022-09-12T10:34:50;5.47;;;4.32;;
59054;SDS011;44845;51.444;7.460;2022-09-12T10:37:18;4.40;;;4.00;;
59054;SDS011;44845;51.444;7.460;2022-09-12T10:39:53;5.63;;;3.97;;
59054;SDS011;44845;51.444;7.460;2022-09-12T10:45:04;6.07;;;3.88;;
59054;SDS011;44845;51.444;7.460;2022-09-12T10:47:41;5.15;;;4.13;;
59054;SDS011;44845;51.444;7.460;2022-09-12T10:50:17;5.63;;;3.67;;
59054;SDS011;44845;51.444;7.460;2022-09-12T10:52:43;3.97;;;3.67;;
59054;SDS011;44845;51.444;7.460;2022-09-12T10:55:15;4.50;;;3.30;;
59054;SDS011;44845;51.444;7.460;2022-09-12T10:57:53;3.85;;;3.20;;
59054;SDS011;44845;51.444;7.460;2022-09-12T11:00:23;3.50;;;3.10;;
59054;SDS011;44845;51.444;7.460;2022-09-12T11:03:05;5.50;;;2.95;;
59054;SDS011;44845;51.444;7.460;2022-09-12T11:06:07;3.20;;;2.83;;
59054;SDS011;44845;51.444;7.460;2022-09-12T11:13:58;4.05;;;2.95;;
59054;SDS011;44845;51.444;7.460;2022-09-12T11:16:40;6.15;;;2.85;;
59054;SDS011;44845;51.444;7.460;2022-09-12T11:19:15;2.90;;;2.60;;
59054;SDS011;44845;51.444;7.460;2022-09-12T11:29:48;3.53;;;2.92;;
59054;SDS011;44845;51.444;7.460;2022-09-12T11:39:54;3.75;;;2.85;;
59054;SDS011;44845;51.444;7.460;2022-09-12T11:42:22;3.95;;;2.80;;
59054;SDS011;44845;51.444;7.460;2022-09-12T11:44:52;2.55;;;2.35;;
59054;SDS011;44845;51.444;7.460;2022-09-12T11:47:19;3.10;;;2.78;;
59054;SDS011;44845;51.444;7.460;2022-09-12T11:52:24;2.75;;;2.55;;
59054;SDS011;44845;51.444;7.460;2022-09-12T12:00:05;2.88;;;2.58;;
59054;SDS011;44845;51.444;7.460;2022-09-12T12:02:34;3.75;;;2.50;;
59054;SDS011;44845;51.444;7.460;2022-09-12T12:07:30;2.95;;;2.30;;
59054;SDS011;44845;51.444;7.460;2022-09-12T12:10:01;2.63;;;2.10;;
59054;SDS011;44845;51.444;7.460;2022-09-12T12:12:27;4.00;;;2.40;;
59054;SDS011;44845;51.444;7.460;2022-09-12T12:14:53;2.50;;;2.30;;
59054;SDS011;44845;51.444;7.460;2022-09-12T12:17:19;2.55;;;2.22;;
59054;SDS011;44845;51.444;7.460;2022-09-12T12:19:46;2.50;;;1.95;;
59054;SDS011;44845;51.444;7.460;2022-09-12T12:22:16;2.85;;;2.50;;
59054;SDS011;44845;51.444;7.460;2022-09-12T12:24:52;3.05;;;2.70;;
59054;SDS011;44845;51.444;7.460;2022-09-12T12:27:22;4.80;;;2.50;;
59054;SDS011;44845;51.444;7.460;2022-09-12T12:29:48;5.88;;;3.67;;
59054;SDS011;44845;51.444;7.460;2022-09-12T12:34:42;5.60;;;3.28;;
59054;SDS011;44845;51.444;7.460;2022-09-12T12:44:54;3.20;;;2.33;;
59054;SDS011;44845;51.444;7.460;2022-09-12T12:47:23;2.40;;;2.20;;
59054;SDS011;44845;51.444;7.460;2022-09-12T12:49:56;2.25;;;2.05;;
59054;SDS011;44845;51.444;7.460;2022-09-12T12:52:23;2.40;;;2.17;;
59054;SDS011;44845;51.444;7.460;2022-09-12T12:54:50;2.65;;;2.33;;
59054;SDS011;44845;51.444;7.460;2022-09-12T12:57:16;2.50;;;2.30;;
59054;SDS011;44845;51.444;7.460;2022-09-12T12:59:52;3.30;;;2.40;;
59054;SDS011;44845;51.444;7.460;2022-09-12T13:02:23;2.50;;;2.30;;
59054;SDS011;44845;51.444;7.460;2022-09-12T13:04:49;2.70;;;2.53;;
59054;SDS011;44845;51.444;7.460;2022-09-12T13:07:20;3.00;;;2.70;;
59054;SDS011;44845;51.444;7.460;2022-09-12T13:09:47;3.13;;;2.67;;
59054;SDS011;44845;51.444;7.460;2022-09-12T13:12:20;2.72;;;2.00;;
59054;SDS011;44845;51.444;7.460;2022-09-12T13:14:53;2.55;;;2.35;;
59054;SDS011;44845;51.444;7.460;2022-09-12T13:17:21;2.80;;;2.25;;
59054;SDS011;44845;51.444;7.460;2022-09-12T13:19:48;2.97;;;2.35;;
59054;SDS011;44845;51.444;7.460;2022-09-12T13:22:13;2.80;;;2.40;;
59054;SDS011;44845;51.444;7.460;2022-09-12T13:24:46;2.63;;;2.27;;
59054;SDS011;44845;51.444;7.460;2022-09-12T13:29:44;3.30;;;2.40;;
59054;SDS011;44845;51.444;7.460;2022-09-12T13:32:09;2.50;;;2.30;;
59054;SDS011;44845;51.444;7.460;2022-09-12T13:34:59;2.80;;;2.17;;
59054;SDS011;44845;51.444;7.460;2022-09-12T13:42:41;3.83;;;2.08;;
59054;SDS011;44845;51.444;7.460;2022-09-12T13:45:12;2.97;;;2.40;;
59054;SDS011;44845;51.444;7.460;2022-09-12T13:47:42;5.40;;;2.47;;
59054;SDS011;44845;51.444;7.460;2022-09-12T13:50:12;2.08;;;1.98;;
59054;SDS011;44845;51.444;7.460;2022-09-12T13:52:39;2.92;;;2.05;;
59054;SDS011;44845;51.444;7.460;2022-09-12T13:55:06;2.13;;;2.03;;
59054;SDS011;44845;51.444;7.460;2022-09-12T13:57:36;2.13;;;1.88;;
59054;SDS011;44845;51.444;7.460;2022-09-12T14:02:32;1.88;;;1.77;;
59054;SDS011;44845;51.444;7.460;2022-09-12T14:04:58;2.28;;;2.08;;
59054;SDS011;44845;51.444;7.460;2022-09-12T14:10:12;2.38;;;2.17;;
59054;SDS011;44845;51.444;7.460;2022-09-12T14:12:39;2.33;;;2.13;;
59054;SDS011;44845;51.444;7.460;2022-09-12T14:15:14;2.30;;;2.10;;
59054;SDS011;44845;51.444;7.460;2022-09-12T14:17:47;2.35;;;2.15;;
59054;SDS011;44845;51.444;7.460;2022-09-12T14:20:16;2.15;;;1.90;;
59054;SDS011;44845;51.444;7.460;2022-09-12T14:22:42;2.20;;;2.00;;
59054;SDS011;44845;51.444;7.460;2022-09-12T14:25:14;2.17;;;1.92;;
59054;SDS011;44845;51.444;7.460;2022-09-12T14:27:41;4.88;;;2.13;;
59054;SDS011;44845;51.444;7.460;2022-09-12T14:30:23;3.53;;;2.17;;
59054;SDS011;44845;51.444;7.460;2022-09-12T14:35:29;2.38;;;2.17;;
59054;SDS011;44845;51.444;7.460;2022-09-12T14:37:54;2.42;;;2.22;;
59054;SDS011;44845;51.444;7.460;2022-09-12T14:40:20;2.42;;;2.22;;
59054;SDS011;44845;51.444;7.460;2022-09-12T14:42:46;4.72;;;2.42;;
59054;SDS011;44845;51.444;7.460;2022-09-12T14:45:27;2.30;;;2.10;;
59054;SDS011;44845;51.444;7.460;2022-09-12T14:47:53;3.78;;;2.03;;
59054;SDS011;44845;51.444;7.460;2022-09-12T14:50:23;1.92;;;1.83;;
59054;SDS011;44845;51.444;7.460;2022-09-12T14:53:19;2.72;;;2.30;;
59054;SDS011;44845;51.444;7.460;2022-09-12T14:55:49;2.55;;;2.22;;
59054;SDS011;44845;51.444;7.460;2022-09-12T14:58:24;2.47;;;2.10;;
59054;SDS011;44845;51.444;7.460;2022-09-12T15:00:51;2.45;;;1.85;;
59054;SDS011;44845;51.444;7.460;2022-09-12T15:03:23;1.95;;;1.85;;
59054;SDS011;44845;51.444;7.460;2022-09-12T15:05:49;2.15;;;1.95;;
59054;SDS011;44845;51.444;7.460;2022-09-12T15:08:14;4.75;;;2.28;;
59054;SDS011;44845;51.444;7.460;2022-09-12T15:10:42;3.97;;;1.70;;
59054;SDS011;44845;51.444;7.460;2022-09-12T15:15:33;2.38;;;1.88;;
59054;SDS011;44845;51.444;7.460;2022-09-12T15:17:58;2.47;;;1.90;;
59054;SDS011;44845;51.444;7.460;2022-09-12T15:20:23;2.77;;;2.00;;
59054;SDS011;44845;51.444;7.460;2022-09-12T15:22:49;1.80;;;1.70;;
59054;SDS011;44845;51.444;7.460;2022-09-12T15:25:14;3.17;;;2.20;;
59054;SDS011;44845;51.444;7.460;2022-09-12T15:27:39;3.57;;;1.80;;
59054;SDS011;44845;51.444;7.460;2022-09-12T15:30:05;2.42;;;2.03;;
59054;SDS011;44845;51.444;7.460;2022-09-12T15:32:30;2.03;;;1.88;;
59054;SDS011;44845;51.444;7.460;2022-09-12T15:34:56;1.83;;;1.60;;
59054;SDS011;44845;51.444;7.460;2022-09-12T15:37:21;1.73;;;1.63;;
59054;SDS011;44845;51.444;7.460;2022-09-12T15:39:47;2.85;;;1.80;;
59054;SDS011;44845;51.444;7.460;2022-09-12T15:42:13;2.22;;;2.00;;
59054;SDS011;44845;51.444;7.460;2022-09-12T15:44:38;1.70;;;1.60;;
59054;SDS011;44845;51.444;7.460;2022-09-12T15:47:03;1.90;;;1.70;;
59054;SDS011;44845;51.444;7.460;2022-09-12T15:49:29;2.78;;;1.77;;
59054;SDS011;44845;51.444;7.460;2022-09-12T15:51:54;1.60;;;1.50;;
59054;SDS011;44845;51.444;7.460;2022-09-12T15:54:19;1.73;;;1.60;;
59054;SDS011;44845;51.444;7.460;2022-09-12T15:56:45;1.55;;;1.30;;
59054;SDS011;44845;51.444;7.460;2022-09-12T15:59:10;2.07;;;1.60;;
59054;SDS011;44845;51.444;7.460;2022-09-12T16:01:35;1.70;;;1.60;;
59054;SDS011;44845;51.444;7.460;2022-09-12T16:04:00;2.07;;;1.80;;
59054;SDS011;44845;51.444;7.460;2022-09-12T16:06:26;2.70;;;1.63;;
59054;SDS011;44845;51.444;7.460;2022-09-12T16:08:53;1.60;;;1.50;;
59054;SDS011;44845;51.444;7.460;2022-09-12T16:11:19;20.00;;;2.53;;
59054;SDS011;44845;51.444;7.460;2022-09-12T16:13:45;12.25;;;2.00;;
59054;SDS011;44845;51.444;7.460;2022-09-12T16:16:10;2.17;;;1.97;;
59054;SDS011;44845;51.444;7.460;2022-09-12T16:18:38;2.53;;;1.70;;
59054;SDS011;44845;51.444;7.460;2022-09-12T16:21:03;3.38;;;1.90;;
59054;SDS011;44845;51.444;7.460;2022-09-12T16:23:28;1.60;;;1.50;;
59054;SDS011;44845;51.444;7.460;2022-09-12T16:25:57;1.60;;;1.43;;
59054;SDS011;44845;51.444;7.460;2022-09-12T16:28:22;2.00;;;1.80;;
59054;SDS011;44845;51.444;7.460;2022-09-12T16:30:54;2.00;;;1.90;;
59054;SDS011;44845;51.444;7.460;2022-09-12T16:33:20;1.90;;;1.70;;
59054;SDS011;44845;51.444;7.460;2022-09-12T16:35:45;2.50;;;2.23;;
59054;SDS011;44845;51.444;7.460;2022-09-12T16:38:10;2.20;;;2.00;;
59054;SDS011;44845;51.444;7.460;2022-09-12T16:40:36;2.00;;;1.80;;
59054;SDS011;44845;51.444;7.460;2022-09-12T16:43:01;1.60;;;1.50;;
59054;SDS011;44845;51.444;7.460;2022-09-12T16:45:26;1.97;;;1.87;;
59054;SDS011;44845;51.444;7.460;2022-09-12T16:47:51;2.70;;;1.67;;
59054;SDS011;44845;51.444;7.460;2022-09-12T16:50:16;2.03;;;1.90;;
59054;SDS011;44845;51.444;7.460;2022-09-12T16:52:41;2.27;;;1.90;;
59054;SDS011;44845;51.444;7.460;2022-09-12T16:55:07;1.90;;;1.80;;
59054;SDS011;44845;51.444;7.460;2022-09-12T16:57:32;2.60;;;1.90;;
59054;SDS011;44845;51.444;7.460;2022-09-12T16:59:57;1.80;;;1.70;;